Time;durP1;ratioP1;P1;durP2;ratioP2;P2;SDS_P1;SDS_P2;PMS_P1;PMS_P2;Temp;Humidity;BMP_temperature;BMP_pressure;BME280_temperature;BME280_humidity;BME280_pressure;Samples;Min_cycle;Max_cycle;Signal;HPM_P1;HPM_P2
2023/04/12 00:01:35;;;;;;;6.37;3.47;;;;;;;;;;4999282;28;20499;-69
2023/04/12 00:04:04;;;;;;;4.90;4.17;;;;;;;;;;4988833;28;20483;-69
2023/04/12 00:06:32;;;;;;;12.47;3.70;;;;;;;;;;4987070;28;20760;-69
2023/04/12 00:09:02;;;;;;;7.87;3.93;;;;;;;;;;4997123;28;20448;-69
2023/04/12 00:11:31;;;;;;;7.00;3.80;;;;;;;;;;4995773;28;20484;-68
2023/04/12 00:13:57;;;;;;;7.47;3.50;;;;;;;;;;4995390;28;20546;-69
2023/04/12 00:16:25;;;;;;;8.23;4.13;;;;;;;;;;4979002;28;20513;-69
2023/04/12 00:18:51;;;;;;;7.53;3.70;;;;;;;;;;4992794;28;20448;-68
2023/04/12 00:21:18;;;;;;;6.77;4.37;;;;;;;;;;4990614;28;20558;-68
2023/04/12 00:23:45;;;;;;;7.80;3.50;;;;;;;;;;4990520;28;20460;-69
2023/04/12 00:26:12;;;;;;;8.20;3.37;;;;;;;;;;4986511;28;20510;-67
2023/04/12 00:28:40;;;;;;;9.23;3.83;;;;;;;;;;4996151;28;20483;-67
2023/04/12 00:31:06;;;;;;;7.50;4.00;;;;;;;;;;4998693;28;20472;-66
2023/04/12 00:33:33;;;;;;;6.30;4.80;;;;;;;;;;4991666;28;20638;-67
2023/04/12 00:36:00;;;;;;;10.50;4.00;;;;;;;;;;4993476;28;20943;-67
2023/04/12 00:38:26;;;;;;;7.67;3.57;;;;;;;;;;4981288;28;21063;-67
2023/04/12 00:40:52;;;;;;;7.10;4.40;;;;;;;;;;4998927;28;20538;-68
2023/04/12 00:43:20;;;;;;;5.63;3.90;;;;;;;;;;4995964;28;20471;-67
2023/04/12 00:45:48;;;;;;;8.83;4.00;;;;;;;;;;4999009;28;20521;-68
2023/04/12 00:48:16;;;;;;;6.10;3.77;;;;;;;;;;4994283;28;20892;-67
2023/04/12 00:50:43;;;;;;;5.07;3.77;;;;;;;;;;4997435;28;20494;-68
2023/04/12 00:53:12;;;;;;;5.57;3.40;;;;;;;;;;4986223;28;20463;-68
2023/04/12 00:55:38;;;;;;;8.03;3.70;;;;;;;;;;4996107;28;20480;-67
2023/04/12 00:58:05;;;;;;;7.20;3.63;;;;;;;;;;4997366;28;20444;-67
2023/04/12 01:00:31;;;;;;;5.70;3.00;;;;;;;;;;4982387;28;20520;-66
2023/04/12 01:03:01;;;;;;;6.90;4.10;;;;;;;;;;4998544;28;20451;-67
2023/04/12 01:05:28;;;;;;;9.63;3.90;;;;;;;;;;4994644;28;20471;-66
2023/04/12 01:07:59;;;;;;;7.73;3.80;;;;;;;;;;4990249;28;20460;-67
2023/04/12 01:10:30;;;;;;;7.90;3.57;;;;;;;;;;4988321;28;22492;-66
2023/04/12 01:12:59;;;;;;;8.20;3.73;;;;;;;;;;5000567;28;20523;-68
2023/04/12 01:15:26;;;;;;;5.53;3.20;;;;;;;;;;4984704;28;20483;-67
2023/04/12 01:17:56;;;;;;;9.27;3.60;;;;;;;;;;4998216;28;20479;-67
2023/04/12 01:20:25;;;;;;;7.90;3.60;;;;;;;;;;4988105;28;20453;-68
2023/04/12 01:23:06;;;;;;;6.87;3.77;;;;;;;;;;4999126;28;20435;-68
2023/04/12 01:25:40;;;;;;;7.53;3.63;;;;;;;;;;4995289;28;20862;-69
2023/04/12 01:28:09;;;;;;;9.13;3.60;;;;;;;;;;4991387;28;20511;-69
2023/04/12 01:30:36;;;;;;;7.13;4.17;;;;;;;;;;4986566;28;20484;-68
2023/04/12 01:33:05;;;;;;;10.80;5.03;;;;;;;;;;4987088;28;20456;-68
2023/04/12 01:35:32;;;;;;;5.77;4.23;;;;;;;;;;4982928;28;20506;-68
2023/04/12 01:37:59;;;;;;;7.77;4.30;;;;;;;;;;4992141;28;20460;-67
2023/04/12 01:40:27;;;;;;;10.13;4.30;;;;;;;;;;4998417;28;20942;-67
2023/04/12 01:43:03;;;;;;;7.23;4.17;;;;;;;;;;4994456;28;20999;-67
2023/04/12 01:45:31;;;;;;;6.97;4.00;;;;;;;;;;4986296;28;20471;-68
2023/04/12 01:47:57;;;;;;;9.90;4.10;;;;;;;;;;4995050;28;20455;-67
2023/04/12 01:50:27;;;;;;;6.83;3.77;;;;;;;;;;4997407;28;20515;-67
2023/04/12 01:52:57;;;;;;;5.17;3.87;;;;;;;;;;4983807;28;20467;-68
2023/04/12 01:55:25;;;;;;;5.70;3.87;;;;;;;;;;4989718;28;20604;-67
2023/04/12 01:57:53;;;;;;;6.43;4.53;;;;;;;;;;4998541;28;20532;-68
2023/04/12 02:00:19;;;;;;;6.40;3.77;;;;;;;;;;4990895;28;20476;-68
2023/04/12 02:02:47;;;;;;;8.90;4.63;;;;;;;;;;4999526;28;20507;-68
2023/04/12 02:05:15;;;;;;;7.30;3.60;;;;;;;;;;4992337;28;20466;-69
2023/04/12 02:07:41;;;;;;;6.90;3.23;;;;;;;;;;4997230;28;20819;-68
2023/04/12 02:10:12;;;;;;;5.47;3.40;;;;;;;;;;4989846;28;20483;-68
2023/04/12 02:12:39;;;;;;;7.93;4.33;;;;;;;;;;5000035;28;20479;-68
2023/04/12 02:15:06;;;;;;;8.30;3.67;;;;;;;;;;4998132;28;20499;-68
2023/04/12 02:17:35;;;;;;;8.93;4.20;;;;;;;;;;5000581;28;20550;-69
2023/04/12 02:20:03;;;;;;;8.70;4.30;;;;;;;;;;4995115;28;20448;-69
2023/04/12 02:22:30;;;;;;;7.40;4.00;;;;;;;;;;4989187;28;20568;-67
2023/04/12 02:24:56;;;;;;;5.17;3.30;;;;;;;;;;4993176;28;20455;-68
2023/04/12 02:27:22;;;;;;;12.63;4.87;;;;;;;;;;4981347;28;20507;-69
2023/04/12 02:29:49;;;;;;;16.17;4.50;;;;;;;;;;4998438;28;20511;-67
2023/04/12 02:32:15;;;;;;;10.30;4.40;;;;;;;;;;4993547;28;20572;-67
2023/04/12 02:34:42;;;;;;;5.83;3.60;;;;;;;;;;5000612;28;20515;-68
2023/04/12 02:37:12;;;;;;;11.03;4.77;;;;;;;;;;4996377;28;20472;-68
2023/04/12 02:39:40;;;;;;;7.97;4.63;;;;;;;;;;4997699;28;20452;-68
2023/04/12 02:42:06;;;;;;;3.90;3.20;;;;;;;;;;4986564;28;20479;-68
2023/04/12 02:44:33;;;;;;;9.40;4.83;;;;;;;;;;5001578;28;20478;-67
2023/04/12 02:46:59;;;;;;;7.57;4.27;;;;;;;;;;4987517;28;20516;-68
2023/04/12 02:49:25;;;;;;;6.37;3.83;;;;;;;;;;4982804;28;20519;-68
2023/04/12 02:51:52;;;;;;;8.03;3.77;;;;;;;;;;4995536;28;20522;-67
2023/04/12 02:54:20;;;;;;;7.33;3.70;;;;;;;;;;4996946;28;20511;-69
2023/04/12 02:56:46;;;;;;;8.50;3.80;;;;;;;;;;4985773;28;20504;-68
2023/04/12 02:59:12;;;;;;;7.37;3.50;;;;;;;;;;4995605;28;20475;-68
2023/04/12 03:01:39;;;;;;;8.63;3.80;;;;;;;;;;5001139;28;20471;-68
2023/04/12 03:04:06;;;;;;;8.33;3.80;;;;;;;;;;4987968;28;20474;-68
2023/04/12 03:06:33;;;;;;;9.40;3.93;;;;;;;;;;5001842;28;20487;-68
2023/04/12 03:08:59;;;;;;;5.20;2.37;;;;;;;;;;4995901;28;20448;-68
2023/04/12 03:11:27;;;;;;;4.90;2.17;;;;;;;;;;4999705;28;21007;-68
2023/04/12 03:13:54;;;;;;;5.50;1.90;;;;;;;;;;4991929;28;20479;-69
2023/04/12 03:16:22;;;;;;;8.23;2.20;;;;;;;;;;4994665;28;20485;-68
2023/04/12 03:18:49;;;;;;;6.03;1.93;;;;;;;;;;4992345;28;20843;-68
2023/04/12 03:21:15;;;;;;;3.20;1.70;;;;;;;;;;4991209;28;20495;-68
2023/04/12 03:23:42;;;;;;;4.87;1.83;;;;;;;;;;4992900;28;20997;-68
2023/04/12 03:26:08;;;;;;;3.20;2.30;;;;;;;;;;4992971;28;20571;-67
2023/04/12 03:28:36;;;;;;;6.73;2.13;;;;;;;;;;4999350;28;20448;-67
2023/04/12 03:31:03;;;;;;;10.13;2.47;;;;;;;;;;4984364;28;20869;-68
2023/04/12 03:33:30;;;;;;;7.93;2.07;;;;;;;;;;4999440;28;20462;-68
2023/04/12 03:35:56;;;;;;;6.23;1.90;;;;;;;;;;4994012;28;21193;-68
2023/04/12 03:38:23;;;;;;;4.13;2.03;;;;;;;;;;4984728;28;20981;-69
2023/04/12 03:40:49;;;;;;;2.53;1.63;;;;;;;;;;4999745;28;20475;-68
2023/04/12 03:43:16;;;;;;;3.97;2.33;;;;;;;;;;4999772;28;20506;-67
2023/04/12 03:45:44;;;;;;;4.23;1.90;;;;;;;;;;4994652;28;20503;-68
2023/04/12 03:48:11;;;;;;;8.20;2.60;;;;;;;;;;4994239;28;20523;-68
2023/04/12 03:50:43;;;;;;;5.37;2.63;;;;;;;;;;4985774;28;20477;-68
2023/04/12 03:53:09;;;;;;;7.63;2.13;;;;;;;;;;4990545;28;20459;-68
2023/04/12 03:55:36;;;;;;;8.00;2.20;;;;;;;;;;4995143;28;20522;-70
2023/04/12 03:58:02;;;;;;;8.10;3.43;;;;;;;;;;4986290;28;20819;-71
2023/04/12 04:00:30;;;;;;;4.93;2.17;;;;;;;;;;5000445;28;20475;-70
2023/04/12 04:03:01;;;;;;;2.07;1.80;;;;;;;;;;4996520;28;20448;-70
2023/04/12 04:05:28;;;;;;;7.93;2.40;;;;;;;;;;4999111;28;20487;-71
2023/04/12 04:07:54;;;;;;;5.23;2.10;;;;;;;;;;4991331;28;20475;-71
2023/04/12 04:10:21;;;;;;;5.93;2.27;;;;;;;;;;4982693;28;20572;-71
2023/04/12 04:12:47;;;;;;;2.63;2.43;;;;;;;;;;4996887;28;20483;-70
2023/04/12 04:15:14;;;;;;;4.10;1.93;;;;;;;;;;4996124;28;21393;-70
2023/04/12 04:17:41;;;;;;;5.40;2.30;;;;;;;;;;4994786;28;20488;-71
2023/04/12 04:20:11;;;;;;;3.47;1.83;;;;;;;;;;5000569;28;20452;-71
2023/04/12 04:22:37;;;;;;;7.73;2.33;;;;;;;;;;4997483;28;20479;-71
2023/04/12 04:25:05;;;;;;;5.27;2.30;;;;;;;;;;5000100;28;20514;-71
2023/04/12 04:27:33;;;;;;;4.80;2.10;;;;;;;;;;4994076;28;20479;-71
2023/04/12 04:30:01;;;;;;;6.60;2.60;;;;;;;;;;4997999;28;20459;-69
2023/04/12 04:32:27;;;;;;;5.70;2.70;;;;;;;;;;4984062;28;20487;-71
2023/04/12 04:34:55;;;;;;;6.83;2.13;;;;;;;;;;4995178;28;20463;-72
2023/04/12 04:37:23;;;;;;;6.20;2.40;;;;;;;;;;4977430;28;20508;-70
2023/04/12 04:39:50;;;;;;;9.80;3.00;;;;;;;;;;4998621;28;20456;-70
2023/04/12 04:42:16;;;;;;;3.60;1.80;;;;;;;;;;4982521;28;20484;-71
2023/04/12 04:44:43;;;;;;;4.30;2.30;;;;;;;;;;4991296;28;20531;-71
2023/04/12 04:47:09;;;;;;;4.27;2.67;;;;;;;;;;4990955;28;20503;-71
2023/04/12 04:49:36;;;;;;;4.30;2.27;;;;;;;;;;4995023;28;20789;-71
2023/04/12 04:52:03;;;;;;;4.73;2.03;;;;;;;;;;4990606;28;20492;-71
2023/04/12 04:54:31;;;;;;;4.03;2.20;;;;;;;;;;4990928;28;20488;-70
2023/04/12 04:56:58;;;;;;;5.30;1.77;;;;;;;;;;4999824;28;20482;-70
2023/04/12 04:59:24;;;;;;;6.13;2.13;;;;;;;;;;4993247;28;20498;-71
2023/04/12 05:01:51;;;;;;;7.27;2.50;;;;;;;;;;4996803;28;20546;-71
2023/04/12 05:04:17;;;;;;;8.77;1.90;;;;;;;;;;4995228;28;20455;-71
2023/04/12 05:06:44;;;;;;;3.90;1.70;;;;;;;;;;4998923;28;20505;-72
2023/04/12 05:09:10;;;;;;;5.57;2.00;;;;;;;;;;4981001;28;20473;-72
2023/04/12 05:11:38;;;;;;;4.13;1.80;;;;;;;;;;4987234;28;20476;-72
2023/04/12 05:14:04;;;;;;;4.00;1.90;;;;;;;;;;4987447;28;20487;-70
2023/04/12 05:16:31;;;;;;;4.70;1.90;;;;;;;;;;4992565;28;20491;-71
2023/04/12 05:18:57;;;;;;;6.50;2.13;;;;;;;;;;4994686;28;20478;-72
2023/04/12 05:21:23;;;;;;;5.20;2.80;;;;;;;;;;4987462;28;20499;-72
2023/04/12 05:23:50;;;;;;;5.10;1.90;;;;;;;;;;5000107;28;20499;-70
2023/04/12 05:26:20;;;;;;;7.80;2.00;;;;;;;;;;4991505;28;20552;-71
2023/04/12 05:28:48;;;;;;;5.87;2.00;;;;;;;;;;4995339;28;20451;-71
2023/04/12 05:31:14;;;;;;;4.10;2.00;;;;;;;;;;4987619;28;20546;-72
2023/04/12 05:33:41;;;;;;;2.93;2.00;;;;;;;;;;5003851;28;20443;-71
2023/04/12 05:36:07;;;;;;;4.60;2.73;;;;;;;;;;4998834;28;20483;-70
2023/04/12 05:38:34;;;;;;;3.73;1.90;;;;;;;;;;5000806;28;20524;-69
2023/04/12 05:41:03;;;;;;;6.63;2.03;;;;;;;;;;4991203;28;20544;-71
2023/04/12 05:43:29;;;;;;;8.00;2.90;;;;;;;;;;5002580;28;20474;-71
2023/04/12 05:45:57;;;;;;;3.87;2.03;;;;;;;;;;4991573;28;20535;-69
2023/04/12 05:48:23;;;;;;;6.83;2.10;;;;;;;;;;4993056;28;20475;-71
2023/04/12 05:50:50;;;;;;;7.73;2.60;;;;;;;;;;4997004;28;20503;-71
2023/04/12 05:53:16;;;;;;;3.63;1.77;;;;;;;;;;4991824;28;20498;-70
2023/04/12 05:55:43;;;;;;;5.20;2.23;;;;;;;;;;4996636;28;20490;-71
2023/04/12 05:58:09;;;;;;;3.53;2.17;;;;;;;;;;4993911;28;20481;-72
2023/04/12 06:00:36;;;;;;;3.00;1.87;;;;;;;;;;5000331;28;20471;-69
2023/04/12 06:03:04;;;;;;;5.33;2.37;;;;;;;;;;4993838;28;20476;-70
2023/04/12 06:05:30;;;;;;;4.70;2.37;;;;;;;;;;5003467;28;20470;-71
2023/04/12 06:07:58;;;;;;;5.70;2.50;;;;;;;;;;4988121;28;20464;-71
2023/04/12 06:10:25;;;;;;;4.37;2.47;;;;;;;;;;4994219;28;20567;-72
2023/04/12 06:12:51;;;;;;;3.20;1.93;;;;;;;;;;4992156;28;20511;-68
2023/04/12 06:15:19;;;;;;;3.43;1.80;;;;;;;;;;4984992;28;20515;-71
2023/04/12 06:17:46;;;;;;;13.73;2.10;;;;;;;;;;4991598;28;20456;-67
2023/04/12 06:20:14;;;;;;;6.33;2.30;;;;;;;;;;4986662;28;20483;-67
2023/04/12 06:22:40;;;;;;;4.43;2.33;;;;;;;;;;4994741;28;20479;-67
2023/04/12 06:25:08;;;;;;;6.10;2.27;;;;;;;;;;4993353;28;20483;-67
2023/04/12 06:27:34;;;;;;;6.20;2.10;;;;;;;;;;4996374;28;20562;-67
2023/04/12 06:30:00;;;;;;;4.80;2.00;;;;;;;;;;4976870;28;20461;-67
2023/04/12 06:32:27;;;;;;;5.83;2.77;;;;;;;;;;4990224;28;20509;-67
2023/04/12 06:34:53;;;;;;;5.30;2.43;;;;;;;;;;4962759;28;20507;-67
2023/04/12 06:37:21;;;;;;;6.97;2.17;;;;;;;;;;4985721;28;20514;-67
2023/04/12 06:39:48;;;;;;;3.97;2.23;;;;;;;;;;4979332;28;20456;-67
2023/04/12 06:42:15;;;;;;;4.20;2.10;;;;;;;;;;4979011;28;20550;-67
2023/04/12 06:44:41;;;;;;;6.70;2.30;;;;;;;;;;4984825;28;20444;-67
2023/04/12 06:47:08;;;;;;;4.60;1.90;;;;;;;;;;4978940;28;20480;-67
2023/04/12 06:49:34;;;;;;;5.60;2.13;;;;;;;;;;4982315;28;20804;-69
2023/04/12 06:52:01;;;;;;;3.77;1.80;;;;;;;;;;4981946;28;21094;-67
2023/04/12 06:54:28;;;;;;;2.27;2.07;;;;;;;;;;4976603;28;20521;-67
2023/04/12 06:56:56;;;;;;;8.60;2.50;;;;;;;;;;4978099;28;20476;-67
2023/04/12 06:59:22;;;;;;;4.83;2.10;;;;;;;;;;4980706;28;20452;-65
2023/04/12 07:03:49;;;;;;;3.83;2.00;;;;;;;;;;5157210;27;20641;-67
2023/04/12 07:06:15;;;;;;;3.70;1.87;;;;;;;;;;5135338;27;20498;-63
2023/04/12 07:08:42;;;;;;;5.00;2.17;;;;;;;;;;5118556;28;20472;-66
2023/04/12 07:11:08;;;;;;;3.73;2.30;;;;;;;;;;5119267;27;20528;-66
2023/04/12 07:13:35;;;;;;;3.00;1.93;;;;;;;;;;5128511;28;20452;-66
2023/04/12 07:16:02;;;;;;;5.50;2.30;;;;;;;;;;5128126;27;20520;-67
2023/04/12 07:18:28;;;;;;;3.40;2.10;;;;;;;;;;5119073;28;20499;-67
2023/04/12 07:20:56;;;;;;;3.43;2.83;;;;;;;;;;5122650;27;20492;-67
2023/04/12 07:23:24;;;;;;;4.23;2.70;;;;;;;;;;5119651;28;20445;-67
2023/04/12 07:25:50;;;;;;;4.00;2.40;;;;;;;;;;5116675;27;20499;-67
2023/04/12 07:28:16;;;;;;;4.97;2.70;;;;;;;;;;5106022;28;20477;-67
2023/04/12 07:30:43;;;;;;;3.40;2.20;;;;;;;;;;5100222;27;20500;-67
2023/04/12 07:33:09;;;;;;;2.23;1.93;;;;;;;;;;5116556;28;20542;-67
2023/04/12 07:35:36;;;;;;;4.43;2.73;;;;;;;;;;5112774;27;20505;-67
2023/04/12 07:38:14;;;;;;;3.60;2.10;;;;;;;;;;5097680;28;20482;-67
2023/04/12 07:40:40;;;;;;;3.60;3.03;;;;;;;;;;5100511;28;20553;-67
2023/04/12 07:43:06;;;;;;;3.47;2.80;;;;;;;;;;5117978;28;20477;-67
2023/04/12 07:45:35;;;;;;;4.83;3.00;;;;;;;;;;5116161;27;20489;-68
2023/04/12 07:48:02;;;;;;;7.40;2.70;;;;;;;;;;5109217;28;20466;-67
2023/04/12 07:50:28;;;;;;;5.23;2.93;;;;;;;;;;5117790;27;20461;-67
2023/04/12 07:52:58;;;;;;;6.83;3.10;;;;;;;;;;5127955;28;20502;-67
2023/04/12 07:55:26;;;;;;;5.60;3.37;;;;;;;;;;5107342;27;20478;-67
2023/04/12 07:57:52;;;;;;;4.83;2.90;;;;;;;;;;5096439;28;20511;-67
2023/04/12 08:00:19;;;;;;;6.13;3.10;;;;;;;;;;5097963;28;20455;-67
2023/04/12 08:02:45;;;;;;;6.80;3.80;;;;;;;;;;5115985;28;20477;-67
2023/04/12 08:05:12;;;;;;;7.63;4.63;;;;;;;;;;5114552;27;20505;-68
2023/04/12 08:07:38;;;;;;;6.93;3.80;;;;;;;;;;5094797;28;20483;-67
2023/04/12 08:10:05;;;;;;;4.60;4.00;;;;;;;;;;5095272;28;20467;-67
2023/04/12 08:12:33;;;;;;;6.13;3.83;;;;;;;;;;5122619;27;20514;-67
2023/04/12 08:14:59;;;;;;;5.50;3.20;;;;;;;;;;5103772;28;20482;-67
2023/04/12 08:17:27;;;;;;;9.07;3.87;;;;;;;;;;5082925;28;20543;-67
2023/04/12 08:19:53;;;;;;;7.00;3.50;;;;;;;;;;5082333;28;20955;-67
2023/04/12 08:22:20;;;;;;;7.97;4.00;;;;;;;;;;5082275;28;20493;-67
2023/04/12 08:24:46;;;;;;;4.30;3.70;;;;;;;;;;5082727;28;20459;-67
2023/04/12 08:27:13;;;;;;;5.50;3.50;;;;;;;;;;5107280;28;20505;-67
2023/04/12 08:29:40;;;;;;;6.67;4.20;;;;;;;;;;5112929;28;20466;-67
2023/04/12 08:32:08;;;;;;;6.90;3.53;;;;;;;;;;5080630;27;20575;-67
2023/04/12 08:34:35;;;;;;;4.60;3.07;;;;;;;;;;5076264;28;20476;-67
2023/04/12 08:37:01;;;;;;;6.03;4.00;;;;;;;;;;5080854;28;20476;-67
2023/04/12 08:39:27;;;;;;;4.53;3.20;;;;;;;;;;5082515;28;20525;-67
2023/04/12 08:41:55;;;;;;;6.00;4.47;;;;;;;;;;5082193;28;20503;-67
2023/04/12 08:44:30;;;;;;;6.73;3.90;;;;;;;;;;5083322;28;20479;-67
2023/04/12 08:46:58;;;;;;;4.10;3.70;;;;;;;;;;5096751;28;20505;-67
2023/04/12 08:49:24;;;;;;;4.27;3.40;;;;;;;;;;5102287;28;20477;-66
2023/04/12 08:51:51;;;;;;;3.53;3.10;;;;;;;;;;5087252;28;20499;-67
2023/04/12 08:54:18;;;;;;;4.87;3.33;;;;;;;;;;5082412;28;20962;-67
2023/04/12 08:56:45;;;;;;;3.73;3.23;;;;;;;;;;5081207;28;20495;-67
2023/04/12 08:59:12;;;;;;;4.33;2.83;;;;;;;;;;5081077;28;20487;-68
2023/04/12 09:01:41;;;;;;;4.43;3.17;;;;;;;;;;5093616;28;20482;-67
2023/04/12 09:04:08;;;;;;;3.27;2.90;;;;;;;;;;5100731;28;20453;-66
2023/04/12 09:06:35;;;;;;;3.23;2.93;;;;;;;;;;5101279;28;20487;-68
2023/04/12 09:09:05;;;;;;;3.30;2.80;;;;;;;;;;5095342;28;20435;-68
2023/04/12 09:11:32;;;;;;;3.60;3.30;;;;;;;;;;5105594;27;20554;-68
2023/04/12 09:13:58;;;;;;;2.97;2.70;;;;;;;;;;5102851;28;20475;-68
2023/04/12 09:16:37;;;;;;;3.33;3.03;;;;;;;;;;5101106;28;20482;-67
2023/04/12 09:19:04;;;;;;;3.30;2.60;;;;;;;;;;5102240;28;20447;-67
2023/04/12 09:21:33;;;;;;;3.80;2.90;;;;;;;;;;5101941;28;20471;-67
2023/04/12 09:24:08;;;;;;;5.90;2.93;;;;;;;;;;5102079;28;20526;-66
2023/04/12 09:26:34;;;;;;;2.90;2.60;;;;;;;;;;5099036;28;20539;-67
2023/04/12 09:29:01;;;;;;;3.90;2.47;;;;;;;;;;5102651;28;20458;-67
2023/04/12 09:31:27;;;;;;;4.23;2.73;;;;;;;;;;5100547;28;20474;-67
2023/04/12 09:34:00;;;;;;;2.00;1.90;;;;;;;;;;5101876;28;20561;-66
2023/04/12 09:36:37;;;;;;;2.30;2.10;;;;;;;;;;5089839;28;20782;-66
2023/04/12 09:39:05;;;;;;;4.17;2.17;;;;;;;;;;5081606;28;20448;-67
2023/04/12 09:41:32;;;;;;;3.90;2.53;;;;;;;;;;5092751;28;20471;-67
2023/04/12 09:43:58;;;;;;;2.60;1.77;;;;;;;;;;5102527;28;20443;-67
2023/04/12 09:46:25;;;;;;;3.40;2.30;;;;;;;;;;5097851;28;20970;-67
2023/04/12 09:48:52;;;;;;;3.47;1.97;;;;;;;;;;5100980;28;20481;-67
2023/04/12 09:51:27;;;;;;;2.67;2.10;;;;;;;;;;5100721;28;20510;-67
2023/04/12 09:53:53;;;;;;;2.40;1.70;;;;;;;;;;5101050;28;20513;-67
2023/04/12 09:56:22;;;;;;;2.03;1.80;;;;;;;;;;5100037;28;20479;-66
2023/04/12 09:58:51;;;;;;;3.33;1.80;;;;;;;;;;5101269;28;20450;-67
2023/04/12 10:01:18;;;;;;;2.20;2.00;;;;;;;;;;5090084;28;20507;-67
2023/04/12 10:03:44;;;;;;;1.90;1.60;;;;;;;;;;5081014;28;20460;-67
2023/04/12 10:06:12;;;;;;;2.83;2.00;;;;;;;;;;5089146;28;20474;-67
2023/04/12 10:08:39;;;;;;;2.40;1.70;;;;;;;;;;5100539;28;20459;-66
2023/04/12 10:11:06;;;;;;;1.90;1.60;;;;;;;;;;5091391;28;20490;-66
2023/04/12 10:13:35;;;;;;;4.13;1.87;;;;;;;;;;5081305;28;21073;-67
2023/04/12 10:16:04;;;;;;;2.07;1.60;;;;;;;;;;5086564;28;20498;-66
2023/04/12 10:18:31;;;;;;;2.00;1.73;;;;;;;;;;5100285;28;20475;-67
2023/04/12 10:20:58;;;;;;;1.60;1.50;;;;;;;;;;5098908;28;20502;-66
2023/04/12 10:23:24;;;;;;;1.67;1.50;;;;;;;;;;5099992;28;20466;-67
2023/04/12 10:25:52;;;;;;;3.03;1.30;;;;;;;;;;5093673;28;20503;-66
2023/04/12 10:28:20;;;;;;;1.50;1.40;;;;;;;;;;5074018;28;20850;-67
2023/04/12 10:30:49;;;;;;;1.53;1.43;;;;;;;;;;5084557;28;20501;-67
2023/04/12 10:33:17;;;;;;;3.67;1.43;;;;;;;;;;5101063;28;20475;-67
2023/04/12 10:35:50;;;;;;;2.73;1.17;;;;;;;;;;5100228;28;20466;-66
2023/04/12 10:38:17;;;;;;;1.10;1.00;;;;;;;;;;5100258;28;20503;-66
2023/04/12 10:41:06;;;;;;;1.10;0.90;;;;;;;;;;5094432;28;20510;-67
2023/04/12 10:43:32;;;;;;;1.77;1.30;;;;;;;;;;5077869;28;20936;-66
2023/04/12 10:46:03;;;;;;;1.07;1.07;;;;;;;;;;5086909;28;20477;-66
2023/04/12 10:48:31;;;;;;;1.30;1.20;;;;;;;;;;5100152;28;20506;-66
2023/04/12 10:51:14;;;;;;;1.47;1.10;;;;;;;;;;5088487;28;20475;-67
2023/04/12 10:53:40;;;;;;;1.70;1.60;;;;;;;;;;5079724;28;20464;-67
2023/04/12 10:56:22;;;;;;;6.00;1.40;;;;;;;;;;5087370;28;20470;-67
2023/04/12 10:58:58;;;;;;;1.10;1.00;;;;;;;;;;5100088;28;20455;-66
2023/04/12 11:01:26;;;;;;;2.00;1.20;;;;;;;;;;5087801;28;20486;-67
2023/04/12 11:04:08;;;;;;;1.30;1.00;;;;;;;;;;5080350;28;20941;-66
2023/04/12 11:06:48;;;;;;;1.80;0.97;;;;;;;;;;5077918;28;20487;-67
2023/04/12 11:09:21;;;;;;;1.43;1.33;;;;;;;;;;5071845;28;20452;-67
2023/04/12 11:11:48;;;;;;;1.30;1.10;;;;;;;;;;5078860;28;20559;-67
2023/04/12 11:14:15;;;;;;;1.20;1.00;;;;;;;;;;5079180;28;20506;-67
2023/04/12 11:17:00;;;;;;;2.47;1.27;;;;;;;;;;5091998;28;20483;-67
2023/04/12 11:19:28;;;;;;;1.40;1.30;;;;;;;;;;5100160;28;20470;-67
2023/04/12 11:21:54;;;;;;;0.97;0.90;;;;;;;;;;5098889;28;20509;-66
2023/04/12 11:24:21;;;;;;;1.83;1.73;;;;;;;;;;5099613;28;20443;-66
2023/04/12 11:26:47;;;;;;;1.60;1.23;;;;;;;;;;5099358;28;20474;-67
2023/04/12 11:29:15;;;;;;;2.17;1.50;;;;;;;;;;5099013;28;20537;-67
2023/04/12 11:31:41;;;;;;;1.40;1.30;;;;;;;;;;5099265;28;20554;-67
2023/04/12 11:34:08;;;;;;;1.87;1.00;;;;;;;;;;5100284;28;20511;-67
2023/04/12 11:36:36;;;;;;;2.47;1.20;;;;;;;;;;5097789;28;20481;-67
2023/04/12 11:39:03;;;;;;;1.43;1.20;;;;;;;;;;5100267;28;20459;-67
2023/04/12 11:41:30;;;;;;;1.40;1.10;;;;;;;;;;5087167;28;20504;-67
2023/04/12 11:43:57;;;;;;;2.27;1.53;;;;;;;;;;5079835;28;20479;-67
2023/04/12 11:46:26;;;;;;;1.57;1.30;;;;;;;;;;5078533;28;20510;-67
2023/04/12 11:48:52;;;;;;;1.70;1.00;;;;;;;;;;5080317;28;20459;-67
2023/04/12 11:51:19;;;;;;;1.60;1.20;;;;;;;;;;5097655;28;20466;-67
2023/04/12 11:53:52;;;;;;;1.30;1.10;;;;;;;;;;5109025;28;20477;-67
2023/04/12 11:56:18;;;;;;;0.80;0.80;;;;;;;;;;5121843;27;20476;-67
2023/04/12 11:58:46;;;;;;;1.27;1.17;;;;;;;;;;5109936;28;20489;-67
2023/04/12 12:01:13;;;;;;;1.30;1.00;;;;;;;;;;5108357;27;20471;-67
2023/04/12 12:03:40;;;;;;;1.63;0.90;;;;;;;;;;5104055;28;20475;-65
2023/04/12 12:06:07;;;;;;;1.10;1.00;;;;;;;;;;5101749;28;20794;-67
2023/04/12 12:08:33;;;;;;;1.10;0.90;;;;;;;;;;5103110;28;20489;-65
2023/04/12 12:11:01;;;;;;;1.20;1.10;;;;;;;;;;5094417;28;20522;-65
2023/04/12 12:13:28;;;;;;;1.40;1.20;;;;;;;;;;5082565;28;20543;-65
2023/04/12 12:15:54;;;;;;;1.20;1.10;;;;;;;;;;5089228;28;20489;-65
2023/04/12 12:18:25;;;;;;;1.30;1.20;;;;;;;;;;5103347;28;20486;-65
2023/04/12 12:20:51;;;;;;;1.60;1.17;;;;;;;;;;5094224;28;20712;-68
2023/04/12 12:23:27;;;;;;;1.30;1.10;;;;;;;;;;5045332;28;20962;-66
2023/04/12 12:25:56;;;;;;;1.20;1.10;;;;;;;;;;5088684;28;20630;-68
2023/04/12 12:28:25;;;;;;;1.20;1.10;;;;;;;;;;5095636;28;20508;-65
2023/04/12 12:30:52;;;;;;;1.50;1.37;;;;;;;;;;5102508;27;20469;-65
2023/04/12 12:33:19;;;;;;;1.77;1.27;;;;;;;;;;5103728;28;20493;-66
2023/04/12 12:35:46;;;;;;;1.73;1.07;;;;;;;;;;5102035;28;20473;-66
2023/04/12 12:38:12;;;;;;;3.10;1.50;;;;;;;;;;5101845;28;20447;-66
2023/04/12 12:40:39;;;;;;;1.53;1.43;;;;;;;;;;5101465;28;20972;-65
2023/04/12 12:43:06;;;;;;;1.40;1.20;;;;;;;;;;5101890;28;20758;-65
2023/04/12 12:45:35;;;;;;;2.27;1.57;;;;;;;;;;5100098;28;20557;-65
2023/04/12 12:48:02;;;;;;;1.63;1.53;;;;;;;;;;5100350;28;20451;-65
2023/04/12 12:50:29;;;;;;;1.80;1.70;;;;;;;;;;5099501;27;20529;-66
2023/04/12 12:52:56;;;;;;;2.77;1.80;;;;;;;;;;5082518;28;20463;-66
2023/04/12 12:55:23;;;;;;;1.93;1.83;;;;;;;;;;5082732;28;20528;-66
2023/04/12 12:57:51;;;;;;;1.60;1.50;;;;;;;;;;5101784;28;20459;-68
2023/04/12 13:00:19;;;;;;;2.67;2.47;;;;;;;;;;5101450;28;20803;-66
2023/04/12 13:02:47;;;;;;;2.27;2.07;;;;;;;;;;5100843;28;20522;-66
2023/04/12 13:05:13;;;;;;;2.40;1.97;;;;;;;;;;5100704;28;20451;-66
2023/04/12 13:07:40;;;;;;;2.77;2.20;;;;;;;;;;5100259;28;20470;-66
2023/04/12 13:10:07;;;;;;;2.63;2.27;;;;;;;;;;5106739;28;20451;-66
2023/04/12 13:12:34;;;;;;;2.30;2.10;;;;;;;;;;5088932;28;20506;-66
2023/04/12 13:15:02;;;;;;;2.40;1.83;;;;;;;;;;5103888;28;20475;-66
2023/04/12 13:17:29;;;;;;;1.77;1.57;;;;;;;;;;5101378;28;20470;-66
2023/04/12 13:19:57;;;;;;;1.53;1.33;;;;;;;;;;5098996;28;21140;-66
2023/04/12 13:22:23;;;;;;;1.93;1.70;;;;;;;;;;5103648;28;20474;-65
2023/04/12 13:24:50;;;;;;;1.70;1.30;;;;;;;;;;5110144;28;20439;-66
2023/04/12 13:27:17;;;;;;;1.50;1.40;;;;;;;;;;5083384;28;21353;-64
2023/04/12 13:29:43;;;;;;;2.00;1.60;;;;;;;;;;5079662;28;20448;-66
2023/04/12 13:32:10;;;;;;;1.50;1.40;;;;;;;;;;5097041;28;20471;-67
2023/04/12 13:34:37;;;;;;;1.53;1.43;;;;;;;;;;5099464;28;20518;-65
2023/04/12 13:37:04;;;;;;;2.23;1.70;;;;;;;;;;5103707;28;20554;-66
2023/04/12 13:39:33;;;;;;;2.63;1.93;;;;;;;;;;5097485;28;20847;-66
2023/04/12 13:42:00;;;;;;;2.27;1.80;;;;;;;;;;5103308;28;20521;-66
2023/04/12 13:44:30;;;;;;;1.50;1.40;;;;;;;;;;5109020;28;20445;-67
2023/04/12 13:46:56;;;;;;;6.40;2.20;;;;;;;;;;5108927;27;20554;-67
2023/04/12 13:49:23;;;;;;;2.03;1.87;;;;;;;;;;5102068;28;20454;-67
2023/04/12 13:51:49;;;;;;;2.47;2.13;;;;;;;;;;5109234;27;20481;-66
2023/04/12 13:54:17;;;;;;;2.53;2.33;;;;;;;;;;5101919;28;21341;-67
2023/04/12 13:56:46;;;;;;;2.40;2.20;;;;;;;;;;5100396;28;20472;-67
2023/04/12 13:59:13;;;;;;;2.60;2.37;;;;;;;;;;5104451;28;20452;-67
2023/04/12 14:01:39;;;;;;;3.33;2.80;;;;;;;;;;5096900;28;20479;-68
2023/04/12 14:04:08;;;;;;;2.87;2.67;;;;;;;;;;5098921;28;20471;-68
2023/04/12 14:06:35;;;;;;;2.93;2.63;;;;;;;;;;5096159;28;20490;-67
2023/04/12 14:09:01;;;;;;;3.33;3.03;;;;;;;;;;5098210;28;20451;-67
2023/04/12 14:11:29;;;;;;;2.83;2.57;;;;;;;;;;5098437;28;20479;-67
2023/04/12 14:13:56;;;;;;;4.77;2.70;;;;;;;;;;5098370;28;20612;-67
2023/04/12 14:16:22;;;;;;;2.87;2.33;;;;;;;;;;5087923;28;21145;-67
2023/04/12 14:18:48;;;;;;;3.17;2.40;;;;;;;;;;5074641;28;20491;-68
2023/04/12 14:21:15;;;;;;;2.30;2.10;;;;;;;;;;5086274;28;20482;-67
2023/04/12 14:23:42;;;;;;;2.80;2.60;;;;;;;;;;5100094;28;20514;-67
2023/04/12 14:26:08;;;;;;;2.50;2.30;;;;;;;;;;5096619;28;20498;-67
2023/04/12 14:28:36;;;;;;;3.40;2.30;;;;;;;;;;5104322;28;20459;-68
2023/04/12 14:31:02;;;;;;;3.43;3.07;;;;;;;;;;5104706;27;20471;-68
2023/04/12 14:33:29;;;;;;;3.77;3.47;;;;;;;;;;5110302;28;20461;-67
2023/04/12 14:35:56;;;;;;;7.40;3.20;;;;;;;;;;5106708;27;20486;-67
2023/04/12 14:38:23;;;;;;;4.20;3.90;;;;;;;;;;5102921;28;20461;-67
2023/04/12 14:40:50;;;;;;;5.40;4.20;;;;;;;;;;5103841;28;20504;-66
2023/04/12 14:43:19;;;;;;;4.90;4.40;;;;;;;;;;5098261;28;20466;-67
2023/04/12 14:45:47;;;;;;;4.67;4.20;;;;;;;;;;5100915;27;21016;-67
2023/04/12 14:48:13;;;;;;;4.10;3.73;;;;;;;;;;5099100;28;20454;-67